Killington, VT

10:21 PM EDT on May 29, 2017 (GMT -0400)
Fiore Property Services | | Change Station

Elev 1768 ft 43.65 °N, 72.79 °W | Updated 6 seconds ago

Overcast
Overcast
50.4 °F
Feels Like 50.4 °F
N
4.0
Wind Variable Wind from SSE
Gusts 4.9 mph

Today
High -- | Low -- °F
--% Chance of Precip.
Yesterday
High -- | Low -- °F
Precip. -- in
Pressure 30.14 in
Visibility 10.0 miles
Clouds Mostly Cloudy 2100 ft
Overcast 2600 ft
Dew Point 48 °F
Humidity 93%
Rainfall 0.17 in
Snow Depth Not available.
5:14 AM 8:23 PM
Waxing Crescent, 25% visible
METAR KRUT 300156Z AUTO 11011G17KT 10SM BKN021 OVC026 11/08 A3007 RMK AO2 SLP205 T01110083 $
Pressure 30.14 in
Visibility 10.0 miles
Clouds Mostly Cloudy 2100 ft
Overcast 2600 ft
Dew Point 48 °F
Humidity 93%
Rainfall 0.17 in
Snow Depth Not available.
5:14 AM 8:23 PM
Waxing Crescent, 25% visible
METAR KRUT 300156Z AUTO 11011G17KT 10SM BKN021 OVC026 11/08 A3007 RMK AO2 SLP205 T01110083 $

Get Severe Weather Alerts

Thanks for signing up!

Be on the lookout for a verification email in your inbox.

You'll start receiving the daily forecast at 6 AM.

×

10-Day Weather Forecast

Almanac

Astronomy

May. 29, 2017 Rise Set
Actual Time
Civil Twilight
Nautical Twilight
Astronomical Twilight
Moon
Length of Visible Light
Length of Day
Tomorrow will be .
, % of the Moon is Illuminated

Today's Extremes

State Highs State Lows

Community

WunderPhotos

Category 6

Welcome to Category 6. This is the collective home for Weather Underground's featured writeups by Dr. Jeff Masters (right), Bob Henson (left), Chris Burt, and other regular contributors.

Nearby

Air Quality

  Air Quality AQ Index Pollutant
Not available.

Snow Depth

Station Depth Elevation

Earthquake Activity

City Distance Mag. Time & Date
Minimum magnitude displayed is 2.5.

Coastal Water Temperatures

Place Temperature

Stations

Nearby Weather Stations

Station Location Temp. Windchill Dew Point Humidity Wind Precip. Elev Updated Type
                   

Watches & Warnings

There are currently no watches in effect.